sensor_id;sensor_type;location;lat;lon;timestamp;pressure;altitude;pressure_sealevel;temperature;humidity
63665;BME280;49820;33.966;73.390;2022-12-10T05:13:10;79118.13;;;9.67;61.76
63665;BME280;49820;33.966;73.390;2022-12-10T05:15:39;79099.41;;;9.26;58.39
63665;BME280;49820;33.966;73.390;2022-12-10T05:18:08;79109.34;;;9.32;60.15
63665;BME280;49820;33.966;73.390;2022-12-10T05:20:37;79093.47;;;9.67;57.68
63665;BME280;49820;33.966;73.390;2022-12-10T05:23:08;79121.66;;;10.40;57.92
63665;BME280;49820;33.966;73.390;2022-12-10T05:26:04;79108.28;;;11.12;55.21
63665;BME280;49820;33.966;73.390;2022-12-10T05:28:40;79115.28;;;11.29;57.14
63665;BME280;49820;33.966;73.390;2022-12-10T05:31:23;79117.75;;;11.06;56.85
63665;BME280;49820;33.966;73.390;2022-12-10T05:33:53;79110.63;;;11.28;54.89
63665;BME280;49820;33.966;73.390;2022-12-10T05:36:26;79103.13;;;11.36;53.59
63665;BME280;49820;33.966;73.390;2022-12-10T05:38:56;79123.38;;;10.14;52.46
63665;BME280;49820;33.966;73.390;2022-12-10T05:41:29;79106.56;;;9.40;55.40
63665;BME280;49820;33.966;73.390;2022-12-10T05:43:58;79086.81;;;9.66;56.55
63665;BME280;49820;33.966;73.390;2022-12-10T05:46:29;79109.88;;;10.26;56.69
63665;BME280;49820;33.966;73.390;2022-12-10T05:49:00;79112.31;;;10.78;56.57
63665;BME280;49820;33.966;73.390;2022-12-10T05:51:34;79100.34;;;11.42;55.87
63665;BME280;49820;33.966;73.390;2022-12-10T05:54:04;79105.72;;;12.02;55.99
63665;BME280;49820;33.966;73.390;2022-12-10T05:56:35;79101.81;;;12.26;55.32
63665;BME280;49820;33.966;73.390;2022-12-10T05:59:05;79100.34;;;12.60;53.66
63665;BME280;49820;33.966;73.390;2022-12-10T06:01:43;79096.06;;;12.15;46.58
63665;BME280;49820;33.966;73.390;2022-12-10T06:04:12;79095.44;;;12.13;53.06
63665;BME280;49820;33.966;73.390;2022-12-10T06:06:42;79079.59;;;11.43;44.44
63665;BME280;49820;33.966;73.390;2022-12-10T06:09:12;79104.22;;;12.09;51.67
63665;BME280;49820;33.966;73.390;2022-12-10T06:11:41;79080.94;;;11.73;49.11
63665;BME280;49820;33.966;73.390;2022-12-10T06:14:11;79071.09;;;11.63;45.31
63665;BME280;49820;33.966;73.390;2022-12-10T06:16:40;79100.81;;;11.18;52.43
63665;BME280;49820;33.966;73.390;2022-12-10T06:19:09;79096.16;;;11.19;53.77
63665;BME280;49820;33.966;73.390;2022-12-10T06:21:39;79086.84;;;12.37;47.37
63665;BME280;49820;33.966;73.390;2022-12-10T06:24:09;79091.38;;;13.23;51.74
63665;BME280;49820;33.966;73.390;2022-12-10T06:26:38;79072.34;;;13.56;49.43
63665;BME280;49820;33.966;73.390;2022-12-10T06:29:08;79077.41;;;13.91;47.77
63665;BME280;49820;33.966;73.390;2022-12-10T06:31:37;79067.94;;;14.81;45.25
63665;BME280;49820;33.966;73.390;2022-12-10T06:34:06;79059.78;;;14.63;48.71
63665;BME280;49820;33.966;73.390;2022-12-10T06:36:35;79074.69;;;14.37;49.11
63665;BME280;49820;33.966;73.390;2022-12-10T06:39:04;79064.97;;;14.69;47.39
63665;BME280;49820;33.966;73.390;2022-12-10T06:41:34;79054.88;;;14.90;46.95
63665;BME280;49820;33.966;73.390;2022-12-10T06:44:07;79062.00;;;15.39;48.33
63665;BME280;49820;33.966;73.390;2022-12-10T06:46:36;79061.69;;;15.87;47.76
63665;BME280;49820;33.966;73.390;2022-12-10T06:49:06;79062.84;;;16.84;48.54
63665;BME280;49820;33.966;73.390;2022-12-10T06:51:35;79052.47;;;17.24;45.92
63665;BME280;49820;33.966;73.390;2022-12-10T06:54:06;79027.97;;;18.09;44.49
63665;BME280;49820;33.966;73.390;2022-12-10T06:56:35;79056.03;;;18.64;39.90
63665;BME280;49820;33.966;73.390;2022-12-10T06:59:05;79054.03;;;18.17;41.82
63665;BME280;49820;33.966;73.390;2022-12-10T07:01:38;79043.69;;;16.00;43.64
63665;BME280;49820;33.966;73.390;2022-12-10T07:04:10;79037.88;;;15.35;46.62
63665;BME280;49820;33.966;73.390;2022-12-10T07:06:39;79055.84;;;15.41;47.16
63665;BME280;49820;33.966;73.390;2022-12-10T07:09:09;79036.44;;;14.78;47.49
63665;BME280;49820;33.966;73.390;2022-12-10T07:11:40;79019.69;;;15.56;50.22
63665;BME280;49820;33.966;73.390;2022-12-10T07:14:14;79049.38;;;14.73;47.12
63665;BME280;49820;33.966;73.390;2022-12-10T07:16:44;79017.78;;;14.30;49.71
63665;BME280;49820;33.966;73.390;2022-12-10T07:19:13;79039.00;;;14.61;48.48
63665;BME280;49820;33.966;73.390;2022-12-10T07:21:43;79041.63;;;14.63;48.31
63665;BME280;49820;33.966;73.390;2022-12-10T07:24:14;79032.72;;;14.25;50.53
63665;BME280;49820;33.966;73.390;2022-12-10T07:26:45;79025.44;;;14.22;51.25
63665;BME280;49820;33.966;73.390;2022-12-10T07:29:17;79042.88;;;14.66;49.60
63665;BME280;49820;33.966;73.390;2022-12-10T07:31:48;79040.31;;;13.96;51.20
63665;BME280;49820;33.966;73.390;2022-12-10T07:34:17;79028.94;;;13.72;50.86
63665;BME280;49820;33.966;73.390;2022-12-10T07:36:46;79024.16;;;13.52;50.66
63665;BME280;49820;33.966;73.390;2022-12-10T07:39:15;79016.06;;;12.55;50.17
63665;BME280;49820;33.966;73.390;2022-12-10T07:41:49;79031.22;;;12.38;52.49
63665;BME280;49820;33.966;73.390;2022-12-10T07:44:22;79008.88;;;11.94;52.30
63665;BME280;49820;33.966;73.390;2022-12-10T07:46:54;79029.44;;;12.01;54.42
63665;BME280;49820;33.966;73.390;2022-12-10T07:49:23;79018.63;;;10.86;55.95
63665;BME280;49820;33.966;73.390;2022-12-10T07:51:52;79003.91;;;10.15;57.97
63665;BME280;49820;33.966;73.390;2022-12-10T07:54:21;79020.22;;;9.99;58.48
63665;BME280;49820;33.966;73.390;2022-12-10T07:56:50;79016.19;;;9.63;60.14
63665;BME280;49820;33.966;73.390;2022-12-10T07:59:20;78994.56;;;9.40;61.26
63665;BME280;49820;33.966;73.390;2022-12-10T08:01:48;78996.72;;;9.29;62.92
63665;BME280;49820;33.966;73.390;2022-12-10T08:04:18;79021.97;;;9.75;61.84
63665;BME280;49820;33.966;73.390;2022-12-10T08:06:46;78996.56;;;9.39;60.77
63665;BME280;49820;33.966;73.390;2022-12-10T08:09:16;79001.81;;;9.45;60.92
63665;BME280;49820;33.966;73.390;2022-12-10T08:11:45;79008.97;;;9.12;62.57
63665;BME280;49820;33.966;73.390;2022-12-10T08:14:14;79015.00;;;9.10;63.29
63665;BME280;49820;33.966;73.390;2022-12-10T08:16:43;78973.84;;;8.54;64.06
63665;BME280;49820;33.966;73.390;2022-12-10T08:19:12;78968.72;;;8.87;65.05
63665;BME280;49820;33.966;73.390;2022-12-10T08:21:48;78991.28;;;8.92;66.12
63665;BME280;49820;33.966;73.390;2022-12-10T08:24:17;78997.13;;;8.58;71.50
63665;BME280;49820;33.966;73.390;2022-12-10T08:26:46;78975.78;;;8.07;79.13
63665;BME280;49820;33.966;73.390;2022-12-10T08:29:15;78996.22;;;8.20;89.07
63665;BME280;49820;33.966;73.390;2022-12-10T08:31:44;78992.78;;;8.30;93.01
63665;BME280;49820;33.966;73.390;2022-12-10T08:34:15;78972.97;;;7.63;99.08
63665;BME280;49820;33.966;73.390;2022-12-10T08:36:45;78991.22;;;7.35;100.00
63665;BME280;49820;33.966;73.390;2022-12-10T08:39:14;78974.84;;;7.10;100.00
63665;BME280;49820;33.966;73.390;2022-12-10T08:41:45;78955.25;;;6.74;100.00
63665;BME280;49820;33.966;73.390;2022-12-10T08:44:15;78969.91;;;6.65;100.00
63665;BME280;49820;33.966;73.390;2022-12-10T08:46:44;78942.44;;;6.13;100.00
63665;BME280;49820;33.966;73.390;2022-12-10T08:49:13;78970.16;;;6.33;100.00
63665;BME280;49820;33.966;73.390;2022-12-10T08:51:43;78982.69;;;6.42;100.00
63665;BME280;49820;33.966;73.390;2022-12-10T08:54:12;78979.97;;;6.53;100.00
63665;BME280;49820;33.966;73.390;2022-12-10T08:56:41;78974.13;;;6.34;100.00
63665;BME280;49820;33.966;73.390;2022-12-10T08:59:10;78955.09;;;6.03;100.00
63665;BME280;49820;33.966;73.390;2022-12-10T09:01:39;78975.09;;;5.82;100.00
63665;BME280;49820;33.966;73.390;2022-12-10T09:04:08;78966.03;;;5.40;100.00
63665;BME280;49820;33.966;73.390;2022-12-10T09:06:37;78950.06;;;5.54;100.00
63665;BME280;49820;33.966;73.390;2022-12-10T09:09:06;78955.22;;;5.83;100.00
63665;BME280;49820;33.966;73.390;2022-12-10T09:11:35;78959.94;;;5.66;100.00
63665;BME280;49820;33.966;73.390;2022-12-10T09:14:05;78971.31;;;5.40;100.00
63665;BME280;49820;33.966;73.390;2022-12-10T09:16:36;78951.50;;;5.31;100.00
63665;BME280;49820;33.966;73.390;2022-12-10T09:19:06;78960.06;;;5.35;100.00
63665;BME280;49820;33.966;73.390;2022-12-10T09:21:35;78961.19;;;5.79;100.00
63665;BME280;49820;33.966;73.390;2022-12-10T09:24:05;78943.88;;;6.84;100.00
63665;BME280;49820;33.966;73.390;2022-12-10T09:26:34;78946.97;;;7.07;100.00
63665;BME280;49820;33.966;73.390;2022-12-10T09:29:03;78962.09;;;7.22;100.00
63665;BME280;49820;33.966;73.390;2022-12-10T09:31:33;78974.09;;;7.17;90.97
63665;BME280;49820;33.966;73.390;2022-12-10T09:34:03;78961.44;;;7.22;100.00
63665;BME280;49820;33.966;73.390;2022-12-10T09:36:34;78971.78;;;6.81;100.00
63665;BME280;49820;33.966;73.390;2022-12-10T09:39:03;78967.94;;;6.64;100.00
63665;BME280;49820;33.966;73.390;2022-12-10T09:42:00;78962.25;;;6.25;100.00
63665;BME280;49820;33.966;73.390;2022-12-10T09:51:12;78974.59;;;6.59;86.18
63665;BME280;49820;33.966;73.390;2022-12-10T09:53:44;78983.22;;;6.59;91.40
63665;BME280;49820;33.966;73.390;2022-12-10T09:56:23;78993.78;;;6.69;72.66
63665;BME280;49820;33.966;73.390;2022-12-10T09:58:54;79003.19;;;6.52;71.39
63665;BME280;49820;33.966;73.390;2022-12-10T10:01:25;78993.25;;;6.53;75.42
63665;BME280;49820;33.966;73.390;2022-12-10T10:03:56;78986.72;;;6.35;80.15
63665;BME280;49820;33.966;73.390;2022-12-10T10:06:26;78996.72;;;6.29;89.38
63665;BME280;49820;33.966;73.390;2022-12-10T10:08:59;78984.84;;;6.22;77.68
63665;BME280;49820;33.966;73.390;2022-12-10T10:11:32;78986.84;;;6.17;79.71
63665;BME280;49820;33.966;73.390;2022-12-10T10:14:05;78977.53;;;6.22;79.63
63665;BME280;49820;33.966;73.390;2022-12-10T10:16:51;78980.91;;;6.15;80.58
63665;BME280;49820;33.966;73.390;2022-12-10T10:19:28;78990.13;;;6.22;79.50
63665;BME280;49820;33.966;73.390;2022-12-10T10:21:59;78955.16;;;5.93;78.67
63665;BME280;49820;33.966;73.390;2022-12-10T10:24:34;78968.31;;;6.13;75.40
63665;BME280;49820;33.966;73.390;2022-12-10T10:27:14;78978.22;;;6.19;75.64
63665;BME280;49820;33.966;73.390;2022-12-10T10:29:49;78989.25;;;6.56;80.95
63665;BME280;49820;33.966;73.390;2022-12-10T10:32:43;78960.06;;;6.54;92.23
63665;BME280;49820;33.966;73.390;2022-12-10T10:35:34;78979.44;;;6.34;98.14
63665;BME280;49820;33.966;73.390;2022-12-10T10:38:22;78942.41;;;6.18;100.00
63665;BME280;49820;33.966;73.390;2022-12-10T10:40:57;78979.31;;;6.54;100.00
63665;BME280;49820;33.966;73.390;2022-12-10T10:43:31;78981.97;;;6.50;100.00
63665;BME280;49820;33.966;73.390;2022-12-10T10:46:04;78980.09;;;6.36;100.00
63665;BME280;49820;33.966;73.390;2022-12-10T10:48:35;78971.63;;;6.13;100.00
63665;BME280;49820;33.966;73.390;2022-12-10T10:53:46;78995.38;;;6.32;100.00
63665;BME280;49820;33.966;73.390;2022-12-10T10:56:18;78994.84;;;6.13;100.00
63665;BME280;49820;33.966;73.390;2022-12-10T11:01:26;78974.38;;;5.97;100.00
63665;BME280;49820;33.966;73.390;2022-12-10T11:04:13;78980.28;;;6.06;100.00
63665;BME280;49820;33.966;73.390;2022-12-10T11:06:44;78979.03;;;5.87;100.00
63665;BME280;49820;33.966;73.390;2022-12-10T11:09:24;78973.22;;;5.58;100.00
63665;BME280;49820;33.966;73.390;2022-12-10T11:12:06;78993.13;;;5.55;100.00
63665;BME280;49820;33.966;73.390;2022-12-10T11:14:40;78994.41;;;5.62;100.00
63665;BME280;49820;33.966;73.390;2022-12-10T11:19:44;78999.16;;;5.35;100.00
63665;BME280;49820;33.966;73.390;2022-12-10T11:24:58;79003.81;;;5.22;100.00
63665;BME280;49820;33.966;73.390;2022-12-10T11:27:56;79006.56;;;4.90;100.00
63665;BME280;49820;33.966;73.390;2022-12-10T11:30:26;78986.06;;;4.80;100.00
63665;BME280;49820;33.966;73.390;2022-12-10T11:33:41;79005.28;;;4.69;100.00
63665;BME280;49820;33.966;73.390;2022-12-10T11:39:21;79010.56;;;4.65;100.00
63665;BME280;49820;33.966;73.390;2022-12-10T11:48:12;78985.44;;;3.64;100.00
63665;BME280;49820;33.966;73.390;2022-12-10T11:56:33;78994.56;;;3.21;100.00
63665;BME280;49820;33.966;73.390;2022-12-10T11:59:20;79005.72;;;3.03;100.00
63665;BME280;49820;33.966;73.390;2022-12-10T12:02:36;79016.88;;;2.81;100.00
63665;BME280;49820;33.966;73.390;2022-12-10T12:14:01;79002.75;;;2.32;100.00
63665;BME280;49820;33.966;73.390;2022-12-10T12:19:54;79000.09;;;2.26;100.00
63665;BME280;49820;33.966;73.390;2022-12-10T12:22:31;79015.94;;;2.32;100.00
63665;BME280;49820;33.966;73.390;2022-12-10T12:25:40;79012.59;;;2.27;100.00
63665;BME280;49820;33.966;73.390;2022-12-10T12:28:32;78999.25;;;1.99;100.00
63665;BME280;49820;33.966;73.390;2022-12-10T12:31:14;79006.53;;;2.05;100.00
63665;BME280;49820;33.966;73.390;2022-12-10T12:33:49;79017.81;;;2.17;100.00
63665;BME280;49820;33.966;73.390;2022-12-10T12:36:21;79016.47;;;2.14;100.00
63665;BME280;49820;33.966;73.390;2022-12-10T12:46:48;79032.22;;;2.06;100.00
63665;BME280;49820;33.966;73.390;2022-12-10T12:49:29;79021.00;;;2.04;100.00
63665;BME280;49820;33.966;73.390;2022-12-10T12:52:17;79031.56;;;2.06;100.00
63665;BME280;49820;33.966;73.390;2022-12-10T12:54:49;79023.59;;;1.94;100.00
63665;BME280;49820;33.966;73.390;2022-12-10T13:00:09;78988.38;;;1.52;100.00
63665;BME280;49820;33.966;73.390;2022-12-10T13:05:44;79049.16;;;1.81;100.00
63665;BME280;49820;33.966;73.390;2022-12-10T13:13:33;79050.50;;;1.82;100.00
63665;BME280;49820;33.966;73.390;2022-12-10T13:27:19;79062.09;;;1.54;100.00
63665;BME280;49820;33.966;73.390;2022-12-10T13:43:53;79054.53;;;1.23;100.00
63665;BME280;49820;33.966;73.390;2022-12-10T13:46:59;79019.56;;;1.10;100.00
63665;BME280;49820;33.966;73.390;2022-12-10T13:49:33;79042.78;;;1.28;100.00
63665;BME280;49820;33.966;73.390;2022-12-10T13:52:17;79065.25;;;1.41;100.00
63665;BME280;49820;33.966;73.390;2022-12-10T13:55:15;79081.94;;;1.64;100.00
63665;BME280;49820;33.966;73.390;2022-12-10T14:00:31;79085.28;;;1.68;100.00
63665;BME280;49820;33.966;73.390;2022-12-10T14:09:11;79072.66;;;1.57;100.00
63665;BME280;49820;33.966;73.390;2022-12-10T14:11:39;79058.06;;;1.45;100.00
63665;BME280;49820;33.966;73.390;2022-12-10T14:14:19;79056.72;;;1.42;100.00
63665;BME280;49820;33.966;73.390;2022-12-10T14:16:51;79076.59;;;1.56;100.00
63665;BME280;49820;33.966;73.390;2022-12-10T14:19:25;79079.19;;;1.51;100.00
63665;BME280;49820;33.966;73.390;2022-12-10T14:21:56;79065.81;;;1.31;100.00
63665;BME280;49820;33.966;73.390;2022-12-10T14:24:34;79053.25;;;1.22;100.00
63665;BME280;49820;33.966;73.390;2022-12-10T14:27:18;79088.94;;;1.39;100.00
63665;BME280;49820;33.966;73.390;2022-12-10T14:29:49;79097.53;;;1.43;100.00
63665;BME280;49820;33.966;73.390;2022-12-10T14:32:25;79074.28;;;1.20;100.00
63665;BME280;49820;33.966;73.390;2022-12-10T14:34:58;79102.69;;;1.33;100.00
63665;BME280;49820;33.966;73.390;2022-12-10T14:37:31;79098.66;;;1.24;100.00
63665;BME280;49820;33.966;73.390;2022-12-10T14:40:05;79080.09;;;1.14;100.00
63665;BME280;49820;33.966;73.390;2022-12-10T14:42:38;79105.34;;;1.35;100.00
63665;BME280;49820;33.966;73.390;2022-12-10T14:45:12;79088.25;;;1.36;100.00
63665;BME280;49820;33.966;73.390;2022-12-10T14:47:43;79086.16;;;1.25;100.00
63665;BME280;49820;33.966;73.390;2022-12-10T14:50:16;79096.16;;;1.36;100.00
63665;BME280;49820;33.966;73.390;2022-12-10T14:52:51;79107.31;;;1.35;100.00
63665;BME280;49820;33.966;73.390;2022-12-10T14:55:23;79081.50;;;1.19;100.00
63665;BME280;49820;33.966;73.390;2022-12-10T14:58:01;79080.28;;;1.28;100.00
63665;BME280;49820;33.966;73.390;2022-12-10T15:00:31;79106.84;;;1.54;100.00
63665;BME280;49820;33.966;73.390;2022-12-10T15:03:08;79061.84;;;1.28;100.00
63665;BME280;49820;33.966;73.390;2022-12-10T15:05:38;79080.34;;;1.34;100.00
63665;BME280;49820;33.966;73.390;2022-12-10T15:08:15;79109.47;;;1.54;100.00
63665;BME280;49820;33.966;73.390;2022-12-10T15:10:54;79112.63;;;1.39;100.00
63665;BME280;49820;33.966;73.390;2022-12-10T15:13:38;79110.56;;;1.31;100.00
63665;BME280;49820;33.966;73.390;2022-12-10T15:16:40;79091.38;;;1.21;100.00
63665;BME280;49820;33.966;73.390;2022-12-10T15:22:02;79101.41;;;1.36;100.00
63665;BME280;49820;33.966;73.390;2022-12-10T15:24:43;79108.59;;;1.32;100.00
63665;BME280;49820;33.966;73.390;2022-12-10T15:27:23;79091.91;;;1.09;100.00
63665;BME280;49820;33.966;73.390;2022-12-10T15:29:52;79114.97;;;1.12;100.00
63665;BME280;49820;33.966;73.390;2022-12-10T15:32:27;79099.72;;;1.03;100.00
63665;BME280;49820;33.966;73.390;2022-12-10T15:35:03;79114.25;;;1.08;100.00
63665;BME280;49820;33.966;73.390;2022-12-10T15:37:40;79103.56;;;0.94;100.00
63665;BME280;49820;33.966;73.390;2022-12-10T15:40:29;79112.16;;;0.98;100.00
63665;BME280;49820;33.966;73.390;2022-12-10T15:43:27;79117.31;;;0.90;100.00
63665;BME280;49820;33.966;73.390;2022-12-10T15:45:58;79092.03;;;0.63;100.00
63665;BME280;49820;33.966;73.390;2022-12-10T15:48:29;79115.13;;;0.70;100.00
63665;BME280;49820;33.966;73.390;2022-12-10T15:50:59;79115.03;;;0.62;100.00
63665;BME280;49820;33.966;73.390;2022-12-10T15:53:36;79103.06;;;0.53;100.00
63665;BME280;49820;33.966;73.390;2022-12-10T15:56:06;79117.53;;;0.54;100.00
63665;BME280;49820;33.966;73.390;2022-12-10T15:58:35;79132.78;;;0.64;100.00
63665;BME280;49820;33.966;73.390;2022-12-10T16:01:04;79093.63;;;0.36;100.00
63665;BME280;49820;33.966;73.390;2022-12-10T16:03:33;79110.50;;;0.69;100.00
63665;BME280;49820;33.966;73.390;2022-12-10T16:06:02;79084.16;;;0.65;100.00
63665;BME280;49820;33.966;73.390;2022-12-10T16:08:31;79126.72;;;1.05;100.00
63665;BME280;49820;33.966;73.390;2022-12-10T16:11:14;79122.06;;;1.02;100.00
